createdAt,value
2018-02-22T00:01:17.419Z,44.65
2018-02-22T00:06:38.341Z,45.50
2018-02-22T00:12:01.483Z,59.90
2018-02-22T00:17:25.946Z,47.53
2018-02-22T00:22:45.976Z,43.85
2018-02-22T00:27:50.669Z,40.55
2018-02-22T00:32:53.525Z,43.65
2018-02-22T00:37:56.720Z,42.55
2018-02-22T00:42:59.648Z,42.80
2018-02-22T00:48:03.673Z,41.97
2018-02-22T00:53:07.483Z,39.93
2018-02-22T00:58:11.389Z,41.70
2018-02-22T01:03:14.875Z,39.20
2018-02-22T01:08:17.934Z,42.05
2018-02-22T01:13:20.882Z,40.15
2018-02-22T01:18:26.122Z,39.08
2018-02-22T01:23:29.146Z,38.53
2018-02-22T01:28:32.929Z,38.00
2018-02-22T01:33:36.644Z,33.83
2018-02-22T01:38:41.814Z,33.72
2018-02-22T01:43:45.285Z,36.85
2018-02-22T01:48:48.696Z,32.40
2018-02-22T01:53:51.713Z,31.12
2018-02-22T01:58:54.611Z,29.95
2018-02-22T02:03:57.947Z,31.12
2018-02-22T02:09:02.511Z,31.35
2018-02-22T02:14:05.537Z,30.27
2018-02-22T02:19:08.425Z,32.13
2018-02-22T02:24:11.423Z,30.23
2018-02-22T02:29:16.417Z,30.67
2018-02-22T02:34:19.623Z,33.33
2018-02-22T02:39:22.534Z,28.27
2018-02-22T02:44:25.377Z,32.23
2018-02-22T02:49:28.399Z,32.77
2018-02-22T02:54:31.331Z,27.77
2018-02-22T02:59:35.099Z,26.90
2018-02-22T03:04:38.456Z,31.05
2018-02-22T03:09:42.002Z,30.17
2018-02-22T03:14:45.901Z,27.73
2018-02-22T03:19:48.913Z,27.13
2018-02-22T03:24:54.925Z,32.80
2018-02-22T03:29:57.930Z,27.95
2018-02-22T03:35:00.788Z,28.23
2018-02-22T03:40:03.701Z,31.90
2018-02-22T03:45:06.705Z,27.42
2018-02-22T03:50:10.184Z,25.92
2018-02-22T03:55:13.064Z,26.92
2018-02-22T04:00:16.057Z,25.65
2018-02-22T04:05:19.049Z,24.77
2018-02-22T04:10:21.979Z,25.48
2018-02-22T04:15:24.988Z,28.48
2018-02-22T04:20:28.047Z,26.73
2018-02-22T04:25:32.371Z,25.30
2018-02-22T04:30:35.325Z,26.50
2018-02-22T04:35:43.602Z,26.58
2018-02-22T04:40:46.483Z,24.40
2018-02-22T04:45:49.596Z,27.20
2018-02-22T04:50:52.448Z,27.52
2018-02-22T04:55:55.385Z,26.87
2018-02-22T05:00:59.164Z,24.65
2018-02-22T05:06:02.113Z,23.95
2018-02-22T05:11:05.013Z,27.17
2018-02-22T05:16:07.878Z,26.10
2018-02-22T05:21:11.773Z,28.45
2018-02-22T05:26:14.585Z,26.92
2018-02-22T05:31:17.389Z,25.23
2018-02-22T05:36:20.193Z,27.02
2018-02-22T05:46:56.756Z,26.77
2018-02-22T05:51:59.764Z,25.93
2018-02-22T05:57:02.617Z,26.50
2018-02-22T06:02:05.614Z,28.43
2018-02-22T06:07:08.674Z,25.25
2018-02-22T06:12:11.559Z,27.52
2018-02-22T06:17:15.034Z,24.98
2018-02-22T06:22:18.200Z,25.77
2018-02-22T06:27:21.077Z,24.65
2018-02-22T06:32:36.524Z,23.95
2018-02-22T06:37:39.392Z,23.83
2018-02-22T06:42:43.061Z,23.23
2018-02-22T06:47:46.510Z,21.58
2018-02-22T06:52:50.267Z,21.70
2018-02-22T06:57:53.417Z,20.88
2018-02-22T07:02:56.467Z,23.60
2018-02-22T07:07:59.364Z,21.30
2018-02-22T07:13:02.180Z,23.52
2018-02-22T07:18:04.968Z,22.50
2018-02-22T07:23:16.651Z,21.10
2018-02-22T07:28:10.806Z,21.60
2018-02-22T07:33:13.746Z,21.08
2018-02-22T07:38:18.844Z,23.45
2018-02-22T07:43:21.703Z,21.30
2018-02-22T07:48:24.541Z,23.90
2018-02-22T07:53:27.352Z,18.50
2018-02-22T07:58:30.194Z,19.77
2018-02-22T08:03:33.828Z,19.23
2018-02-22T08:08:36.676Z,18.75
2018-02-22T08:13:40.652Z,18.10
2018-02-22T08:18:43.806Z,18.12
2018-02-22T08:23:46.600Z,17.02
2018-02-22T08:28:49.439Z,15.80
2018-02-22T08:33:53.050Z,15.37
2018-02-22T08:38:56.624Z,17.40
2018-02-22T08:43:59.483Z,14.13
2018-02-22T08:49:02.335Z,15.70
2018-02-22T08:54:05.505Z,13.10
2018-02-22T08:59:08.529Z,14.05
2018-02-22T09:04:11.369Z,13.52
2018-02-22T09:09:14.242Z,13.27
2018-02-22T09:14:17.046Z,10.97
2018-02-22T09:19:19.900Z,9.52
2018-02-22T09:24:23.301Z,9.90
2018-02-22T09:29:26.112Z,7.70
2018-02-22T09:34:29.256Z,9.82
2018-02-22T09:39:32.188Z,9.05
2018-02-22T09:44:36.609Z,8.87
2018-02-22T09:49:39.425Z,10.55
2018-02-22T09:59:52.114Z,8.93
2018-02-22T10:04:54.988Z,8.57
2018-02-22T10:09:59.274Z,10.65
2018-02-22T10:15:02.978Z,8.00
2018-02-22T10:20:05.947Z,7.55
2018-02-22T10:25:09.137Z,8.33
2018-02-22T10:30:12.323Z,7.50
2018-02-22T10:35:15.886Z,9.05
2018-02-22T10:40:18.855Z,8.70
2018-02-22T10:45:21.670Z,7.45
2018-02-22T10:50:24.497Z,6.20
2018-02-22T10:55:27.289Z,6.55
2018-02-22T11:00:36.053Z,8.10
2018-02-22T11:05:39.001Z,6.65
2018-02-22T11:10:41.878Z,6.30
2018-02-22T11:15:45.481Z,8.20
2018-02-22T11:20:49.288Z,7.78
2018-02-22T11:26:03.660Z,6.68
2018-02-22T11:31:18.768Z,5.97
2018-02-22T11:36:36.491Z,6.35
2018-02-22T11:41:50.758Z,6.50
2018-02-22T11:47:12.376Z,5.62
2018-02-22T11:52:34.268Z,7.70
2018-02-22T11:57:58.111Z,11.07
2018-02-22T12:08:46.206Z,11.57
2018-02-22T12:14:07.264Z,14.10
2018-02-22T12:24:38.897Z,11.85
2018-02-22T12:30:00.871Z,9.57
2018-02-22T12:35:19.850Z,9.20
2018-02-22T12:40:42.063Z,8.13
2018-02-22T12:46:08.000Z,10.07
2018-02-22T12:51:29.036Z,8.60
2018-02-22T12:56:51.263Z,10.40
2018-02-22T13:02:09.991Z,8.13
2018-02-22T13:07:28.830Z,11.40
2018-02-22T13:12:46.556Z,9.17
2018-02-22T13:18:02.622Z,10.27
2018-02-22T13:23:22.364Z,10.83
2018-02-22T13:28:41.399Z,9.35
2018-02-22T13:34:05.861Z,8.10
2018-02-22T13:39:27.769Z,9.63
2018-02-22T13:45:07.997Z,7.53
2018-02-22T13:50:34.819Z,6.80
2018-02-22T13:55:53.587Z,7.78
2018-02-22T14:01:20.120Z,7.20
2018-02-22T14:06:39.813Z,8.07
2018-02-22T14:12:03.443Z,8.63
2018-02-22T14:17:21.256Z,6.40
2018-02-22T14:22:37.368Z,8.70
2018-02-22T14:27:53.734Z,7.95
2018-02-22T14:38:32.771Z,7.83
2018-02-22T14:43:57.926Z,7.78
2018-02-22T14:49:20.092Z,7.40
2018-02-22T14:54:45.583Z,10.97
2018-02-22T14:59:56.237Z,6.30
2018-02-22T15:05:12.306Z,7.83
2018-02-22T15:10:29.980Z,7.80
2018-02-22T15:21:12.514Z,7.57
2018-02-22T15:26:31.948Z,7.93
2018-02-22T15:31:54.571Z,8.23
2018-02-22T15:37:15.787Z,7.37
2018-02-22T15:42:26.903Z,9.48
2018-02-22T15:53:03.869Z,9.30
2018-02-22T15:58:21.038Z,9.80
2018-02-22T16:03:37.823Z,9.20
2018-02-22T16:08:54.906Z,8.80
2018-02-22T16:14:12.796Z,8.10
2018-02-22T16:19:23.354Z,10.50
2018-02-22T16:24:39.637Z,9.43
2018-02-22T16:29:55.509Z,7.93
2018-02-22T16:35:10.711Z,10.45
2018-02-22T16:40:25.860Z,7.63
2018-02-22T16:45:35.673Z,11.00
2018-02-22T16:56:15.168Z,10.20
2018-02-22T17:07:05.765Z,8.93
2018-02-22T17:12:23.499Z,8.88
2018-02-22T17:17:49.874Z,7.73
2018-02-22T17:23:16.648Z,11.77
2018-02-22T17:28:35.007Z,13.35
2018-02-22T17:33:51.694Z,9.20
2018-02-22T17:39:11.038Z,11.73
2018-02-22T17:44:26.576Z,9.57
2018-02-22T17:49:38.486Z,12.37
2018-02-22T17:54:58.549Z,9.63
2018-02-22T18:05:36.951Z,12.03
2018-02-22T18:11:00.840Z,9.20
2018-02-22T18:16:34.669Z,10.32
2018-02-22T18:21:52.721Z,10.02
2018-02-22T18:32:41.305Z,9.43
2018-02-22T18:37:50.969Z,9.80
2018-02-22T18:43:23.720Z,10.10
2018-02-22T18:54:08.334Z,10.00
2018-02-22T18:59:13.592Z,10.30
2018-02-22T19:04:16.692Z,10.07
2018-02-22T19:09:20.274Z,9.20
2018-02-22T19:14:23.585Z,9.55
2018-02-22T19:19:26.360Z,10.30
2018-02-22T19:24:29.246Z,11.30
2018-02-22T19:29:33.724Z,9.27
2018-02-22T19:34:37.372Z,9.97
2018-02-22T19:39:40.294Z,10.80
2018-02-22T19:44:44.108Z,12.73
2018-02-22T19:49:46.908Z,13.40
2018-02-22T19:54:49.767Z,12.37
2018-02-22T19:59:52.621Z,13.30
2018-02-22T20:04:57.050Z,12.70
2018-02-22T20:09:59.850Z,10.80
2018-02-22T20:15:02.691Z,13.43
2018-02-22T20:20:07.248Z,11.23
2018-02-22T20:25:10.130Z,12.70
2018-02-22T20:30:14.100Z,12.98
2018-02-22T20:35:24.812Z,11.48
2018-02-22T20:40:31.183Z,11.63
2018-02-22T20:45:34.954Z,10.88
2018-02-22T20:50:39.637Z,10.38
2018-02-22T20:55:47.758Z,10.23
2018-02-22T21:00:54.470Z,9.45
2018-02-22T21:05:58.632Z,11.45
2018-02-22T21:11:18.261Z,11.35
2018-02-22T21:16:23.940Z,12.23
2018-02-22T21:21:27.299Z,9.90
2018-02-22T21:26:32.777Z,12.15
2018-02-22T21:31:35.793Z,11.17
2018-02-22T21:36:39.391Z,10.67
2018-02-22T21:41:43.626Z,12.90
2018-02-22T21:46:46.457Z,12.82
2018-02-22T21:51:50.674Z,12.70
2018-02-22T21:56:54.915Z,12.40
2018-02-22T22:01:59.985Z,12.77
2018-02-22T22:07:03.607Z,11.95
2018-02-22T22:12:07.217Z,12.10
2018-02-22T22:17:10.179Z,13.05
2018-02-22T22:22:14.903Z,11.18
2018-02-22T22:27:18.789Z,13.05
2018-02-22T22:32:24.785Z,11.98
2018-02-22T22:37:28.342Z,11.95
2018-02-22T22:42:31.857Z,15.13
2018-02-22T22:47:34.782Z,12.25
2018-02-22T22:52:38.380Z,11.70
2018-02-22T22:57:41.271Z,11.32
2018-02-22T23:02:45.086Z,13.40
2018-02-22T23:07:53.947Z,15.13
2018-02-22T23:12:56.896Z,12.93
2018-02-22T23:18:01.558Z,15.65
2018-02-22T23:23:04.398Z,13.47
2018-02-22T23:28:07.267Z,14.73
2018-02-22T23:33:10.660Z,12.30
2018-02-22T23:38:13.583Z,12.60
2018-02-22T23:43:17.345Z,12.90
2018-02-22T23:48:23.610Z,13.30
2018-02-22T23:53:30.669Z,14.20
2018-02-22T23:58:38.494Z,13.02
